Latest Coastal Weather Observations for Mardie

IDW60701

Issued at 8:03 am WST Sunday 20 August 2017 (issued every 10 minutes, with the page automatically refreshed every 10 minutes)

About coastal observations | Map of coastal stations | Coastal observations for WA | Marine services | Other Formats
Station Details ID: 005008 Name: MARDIE Lat: -21.19 Lon: 115.98 Height: 11.0 m
Data from the previous 72 hours. | See also: Recent months at Mardie
Date/Time
WST
Temp
°C
Wind Pressure Rain since
9am
mm
Weather Cloud Vis
km
Sea
Height
m
Swell
Dir  Spd
kts
Gust
kts
hPa Trend Height
m
Period
s
Dir
20/08:00am 18.1 SSW 9 12 1017.1 - 0.0 - - - - - - -
20/07:30am 17.0 SSW 7 9 1017.0 - 0.0 - - - - - - -
20/07:00am 16.6 SSW 8 10 1016.9 - 0.0 - - - - - - -
20/06:30am 16.6 SSW 8 11 1016.7 - 0.0 - - - - - - -
20/06:00am 15.6 SSW 7 9 1016.5 - 0.0 - - - - - - -
20/05:30am 15.6 SW 6 7 1016.3 - 0.0 - - - - - - -
20/05:00am 16.1 SSW 7 9 1016.0 - 0.0 - - - - - - -
20/04:30am 15.7 SW 6 7 1016.1 - 0.0 - - - - - - -
20/04:00am 15.7 SW 6 7 1016.1 - 0.0 - - - - - - -
20/03:30am 16.6 SW 6 7 1016.3 - 0.0 - - - - - - -
20/03:00am 17.0 SW 6 8 1016.3 - 0.0 - - - - - - -
20/02:30am 17.1 SW 5 6 1016.4 - 0.0 - - - - - - -
20/02:00am 17.4 SW 6 8 1016.4 - 0.0 - - - - - - -
20/01:30am 17.2 SW 7 8 1016.2 - 0.0 - - - - - - -
20/01:00am 17.7 SW 7 8 1016.3 - 0.0 - - - - - - -
20/12:30am 18.6 SW 8 9 1016.4 - 0.0 - - - - - - -
20/12:00am 19.4 SW 9 11 1016.4 - 0.0 - - - - - - -
 
Date/Time
WST
Temp
°C
Wind Pressure Rain since
9am
mm
Weather Cloud Vis
km
Sea
Height
m
Swell
Dir  Spd
kts
Gust
kts
hPa Trend Height
m
Period
s
Dir
19/11:30pm 20.3 SW 10 13 1016.4 - 0.0 - - - - - - -
19/11:00pm 21.3 SSW 11 15 1016.4 - 0.0 - - - - - - -
19/10:30pm 21.8 SSW 10 13 1016.4 - 0.0 - - - - - - -
19/10:00pm 21.2 SW 9 12 1016.2 - 0.0 - - - - - - -
19/09:30pm 21.3 SW 8 10 1016.1 - 0.0 - - - - - - -
19/09:00pm 22.0 SW 8 9 1015.9 - 0.0 - - - - - - -
19/08:30pm 22.7 SW 8 11 1015.8 - 0.0 - - - - - - -
19/08:00pm 23.0 SW 7 10 1015.6 - 0.0 - - - - - - -
19/07:30pm 23.1 SW 6 8 1015.3 - 0.0 - - - - - - -
19/07:00pm 23.9 SW 7 9 1015.1 - 0.0 - - - - - - -
19/06:30pm 24.6 SW 7 9 1014.9 - 0.0 - - - - - - -
19/06:00pm 25.6 SW 10 13 1014.5 - 0.0 - - - - - - -
19/05:30pm 26.4 SW 11 15 1014.4 - 0.0 - - - - - - -
19/05:00pm 27.0 SW 12 17 1014.0 - 0.0 - - - - - - -
19/04:30pm 27.4 SW 13 19 1013.9 - 0.0 - - - - - - -
19/04:00pm 27.7 SW 12 17 1013.9 - 0.0 - - - - - - -
19/03:30pm 27.8 SSW 13 20 1013.8 - 0.0 - - - - - - -
19/03:00pm 27.9 SW 13 18 1013.8 - 0.0 - - - - - - -
19/02:30pm 28.3 SW 13 21 1013.8 - 0.0 - - - - - - -
19/02:00pm 28.3 SSW 15 21 1014.2 - 0.0 - - - - - - -
19/01:30pm 27.9 SSW 14 20 1014.6 - 0.0 - - - - - - -
19/01:00pm 27.2 SW 13 19 1015.1 - 0.0 - - - - - - -
19/12:30pm 26.5 SSW 15 22 1015.5 - 0.0 - - - - - - -
19/12:00pm 26.9 SSW 15 21 1015.8 - 0.0 - - - - - - -
19/11:30am 25.5 SW 14 20 1016.3 - 0.0 - - - - - - -
19/11:00am 25.2 SSW 14 20 1016.6 - 0.0 - - - - - - -
19/10:30am 23.9 SSW 14 19 1017.0 - 0.0 - - - - - - -
19/10:00am 23.4 SSW 15 19 1017.2 - 0.0 - - - - - - -
19/09:30am 22.2 SSW 13 16 1017.4 - 0.0 - - - - - - -
19/09:00am 20.2 SSW 11 14 1017.5 - 0.0 - - - - - - -
19/08:30am 19.0 SSW 11 14 1017.6 - 0.0 - - - - - - -
19/08:00am 17.5 SSW 9 13 1017.4 - 0.0 - - - - - - -
19/07:30am 15.5 SW 6 8 1017.1 - 0.0 - - - - - - -
19/07:00am 13.9 SW 5 6 1017.0 - 0.0 - - - - - - -
19/06:30am 13.7 SW 5 5 1016.6 - 0.0 - - - - - - -
19/06:00am 13.8 SSW 5 6 1016.5 - 0.0 - - - - - - -
19/05:30am 14.1 SW 5 6 1016.3 - 0.0 - - - - - - -
19/05:00am 14.5 SW 5 7 1016.3 - 0.0 - - - - - - -
19/04:30am 15.2 SW 6 7 1016.3 - 0.0 - - - - - - -
19/04:00am 15.9 SW 7 10 1016.1 - 0.0 - - - - - - -
19/03:30am 16.3 SW 6 8 1016.0 - 0.0 - - - - - - -
19/03:00am 16.9 SW 6 8 1015.8 - 0.0 - - - - - - -
19/02:30am 17.6 WSW 6 8 1015.9 - 0.0 - - - - - - -
19/02:00am 18.1 SW 6 8 1016.0 - 0.0 - - - - - - -
19/01:30am 17.8 WSW 5 6 1016.2 - 0.0 - - - - - - -
19/01:00am 18.2 WSW 6 7 1016.3 - 0.0 - - - - - - -
19/12:30am 18.6 WSW 4 5 1016.5 - 0.0 - - - - - - -
19/12:00am 18.5 W 3 5 1016.5 - 0.0 - - - - - - -
 
Date/Time
WST
Temp
°C
Wind Pressure Rain since
9am
mm
Weather Cloud Vis
km
Sea
Height
m
Swell
Dir  Spd
kts
Gust
kts
hPa Trend Height
m
Period
s
Dir
18/11:30pm 18.9 W 3 4 1016.5 - 0.0 - - - - - - -
18/11:00pm 18.6 W 3 5 1016.8 - 0.0 - - - - - - -
18/10:30pm 19.5 CALM 0 2 1016.7 - 0.0 - - - - - - -
18/10:00pm 19.8 CALM 0 0 1016.6 - 0.0 - - - - - - -
18/09:30pm 19.7 WNW 3 3 1016.5 - 0.0 - - - - - - -
18/09:00pm 20.2 WNW 4 4 1016.4 - 0.0 - - - - - - -
18/08:30pm 20.6 WNW 4 5 1016.2 - 0.0 - - - - - - -
18/08:00pm 21.0 WNW 3 4 1015.9 - 0.0 - - - - - - -
18/07:30pm 21.3 NW 2 2 1015.5 - 0.0 - - - - - - -
18/07:00pm 22.0 NW 3 4 1014.8 - 0.0 - - - - - - -
18/06:30pm 22.7 NW 4 5 1014.6 - 0.0 - - - - - - -
18/06:00pm 23.9 NNW 4 5 1014.1 - 0.0 - - - - - - -
18/05:30pm 25.3 NNW 6 9 1013.7 - 0.0 - - - - - - -
18/05:00pm 26.2 NNW 7 10 1013.3 - 0.0 - - - - - - -
18/04:30pm 26.8 NNW 7 10 1013.3 - 0.0 - - - - - - -
18/04:00pm 27.0 NNW 8 12 1013.1 - 0.0 - - - - - - -
18/03:30pm 27.0 NNW 7 11 1013.1 - 0.0 - - - - - - -
18/03:00pm 27.6 NNW 8 12 1013.2 - 0.0 - - - - - - -
18/02:30pm 27.2 NW 8 11 1013.3 - 0.0 - - - - - - -
18/02:00pm 27.4 NW 8 12 1013.5 - 0.0 - - - - - - -
18/01:30pm 27.7 N 7 12 1013.7 - 0.0 - - - - - - -
18/01:00pm 28.2 NNW 7 12 1013.9 - 0.0 - - - - - - -
18/12:30pm 27.7 NNW 6 12 1014.2 - 0.0 - - - - - - -
18/12:00pm 27.7 NNW 7 10 1014.4 - 0.0 - - - - - - -
18/11:30am 27.1 N 6 10 1014.8 - 0.0 - - - - - - -
18/11:00am 26.5 NNW 6 10 1015.2 - 0.0 - - - - - - -
18/10:30am - NNE 5 9 1015.5 - 0.0 - - - - - - -
18/10:00am - NNE 5 8 1015.8 - 0.0 - - - - - - -
18/09:30am - NE 3 5 1015.7 - 0.0 - - - - - - -
18/09:00am - E 4 7 1015.5 - - - - - - - - -
18/08:30am - ESE 7 10 1015.4 - - - - - - - - -
18/08:00am - E 6 8 1015.1 - - - - - - - - -
18/07:30am - ESE 3 5 1014.6 - - - - - - - - -
18/07:00am - ESE 4 5 1014.4 - - - - - - - - -
18/06:30am - ESE 4 4 1014.2 - - - - - - - - -
18/06:00am - ESE 5 6 1013.7 - - - - - - - - -
18/05:30am - ESE 4 5 1013.3 - - - - - - - - -
18/05:00am - ESE 3 3 1013.1 - - - - - - - - -
18/04:30am - E 3 4 1013.0 - - - - - - - - -
18/04:00am - E 4 5 1012.8 - - - - - - - - -
18/03:30am - ESE 3 4 1012.9 - - - - - - - - -
18/03:00am - SE 3 4 1013.0 - 0.0 - - - - - - -
18/02:30am 15.4 SSE 4 6 1013.2 - - - - - - - - -
18/02:00am 15.5 SSE 4 5 1013.4 - - - - - - - - -
18/01:30am 16.0 E 2 2 1013.6 - - - - - - - - -
18/01:00am 17.4 NE 3 3 1013.6 - - - - - - - - -
18/12:30am 17.4 NE 3 3 1013.5 - - - - - - - - -
18/12:00am 17.6 NNE 4 5 1013.5 - - - - - - - - -
 
Date/Time
WST
Temp
°C
Wind Pressure Rain since
9am
mm
Weather Cloud Vis
km
Sea
Height
m
Swell
Dir  Spd
kts
Gust
kts
hPa Trend Height
m
Period
s
Dir
17/11:30pm 18.3 NNE 4 4 1013.5 - - - - - - - - -
17/11:00pm 18.6 NNE 5 5 1013.6 - - - - - - - - -
17/10:30pm 19.2 NNE 5 6 1013.7 - - - - - - - - -
17/10:00pm 19.5 NNE 5 6 1013.8 - - - - - - - - -
17/09:30pm 19.6 NNE 4 5 1013.9 - - - - - - - - -
17/09:00pm 20.4 NE 4 5 1013.7 - 0.0 - - - - - - -
17/08:30pm 20.8 NE 5 6 1013.6 - - - - - - - - -
17/08:00pm 21.1 NE 4 5 1013.5 - - - - - - - - -
17/07:30pm 22.0 NNE 4 5 1013.1 - - - - - - - - -
17/07:00pm 23.0 NNE 6 8 1012.7 - - - - - - - - -
17/06:30pm 23.4 NNE 6 9 1012.4 - - - - - - - - -
17/06:00pm 24.3 NNE 8 12 1011.9 - - - - - - - - -
17/05:30pm 25.2 NNE 12 16 1011.7 - - - - - - - - -
17/05:00pm 26.1 NNE 12 19 1011.5 - - - - - - - - -
17/04:30pm 26.8 NNE 14 18 1011.5 - - - - - - - - -
17/04:00pm 26.8 NNE 17 23 1011.4 - - - - - - - - -
17/03:30pm 27.1 NNE 18 23 1011.3 - - - - - - - - -
17/03:00pm 28.0 NNE 18 26 1011.5 - - - - - - - - -
17/02:30pm 28.9 NNE 18 24 1011.4 - - - - - - - - -
17/02:00pm 28.5 NNE 18 25 1011.4 - - - - - - - - -
17/01:30pm 29.1 NNE 15 22 1011.7 - 0.0 - - - - - - -
17/01:00pm 29.9 NNE 11 19 1012.2 - 0.0 - - - - - - -
17/12:30pm 30.5 NE 10 18 1012.6 - 0.0 - - - - - - -
17/12:00pm 29.1 ENE 11 17 1013.0 - 0.0 - - - - - - -
17/11:30am 28.7 ENE 12 17 1013.6 - 0.0 - - - - - - -
17/11:00am 28.3 ENE 13 22 1013.8 - 0.0 - - - - - - -
17/10:30am 27.7 ENE 14 21 1014.1 - 0.0 - - - - - - -
17/10:00am 27.2 E 13 18 1014.5 - 0.0 - - - - - - -
17/09:30am 26.2 E 13 17 1014.4 - 0.0 - - - - - - -
17/09:00am 25.0 ESE 12 17 1014.5 - 0.0 - - - - - - -
17/08:30am 23.2 ESE 10 15 1014.4 - 0.0 - - - - - - -

Other Formats:

Comma delimited format used in spreadsheet applications
http://www.bom.gov.au/fwo/IDW60701/IDW60701.94306.axf

JavaScript Object Notation format (JSON) in row-major order
http://www.bom.gov.au/fwo/IDW60701/IDW60701.94306.json